CA-0426 weather

CLOSED Herb's Travel Plaza Airstrip
Vankleek Hill, Ontario, Canada

Public forecast

Using degrees Celsius for public forecast. Weather courtesy of forecast.io.

METAR (pilot weather report)

Closest report is Montreal International (Mirabel) Airport, 29.7 nm (55.0 km) ENE. Retrieved 2019/05/27 01:00 UTC (31 minutes ago):

CYMX 270100Z 32008KT 25SM FEW060 FEW260 19/09 A2988 RMK SC1CI1 SC TR CI TR SLP121 DENSITY ALT 900FT

TAF (pilot weather forecast)

Forecast is more than 12 hours old.

Closest forecast is Montreal International (Mirabel) Airport, 29.7 nm (55.0 km) ENE. Retrieved 2019/05/26 00:42 UTC (1 day ago):

TAF CYMX 262338Z 2700/2724 31008KT P6SM FEW060 FM271100 33006KT P6SM BKN050 TEMPO 2714/2716 P6SM -SHRA FM271700 30007KT P6SM FEW050 RMK NXT FCST BY 270600Z